createdAt,value
2023-04-05T00:02:05.137Z,20.67
2023-04-05T00:04:32.717Z,22.00
2023-04-05T00:07:00.948Z,14.33
2023-04-05T00:09:27.962Z,22.67
2023-04-05T00:11:54.785Z,17.67
2023-04-05T00:14:21.592Z,19.00
2023-04-05T00:16:48.660Z,18.00
2023-04-05T00:19:17.145Z,18.67
2023-04-05T00:21:44.044Z,17.33
2023-04-05T00:24:10.898Z,24.33
2023-04-05T00:26:37.800Z,24.67
2023-04-05T00:29:04.701Z,17.67
2023-04-05T00:31:31.600Z,25.33
2023-04-05T00:33:58.544Z,22.33
2023-04-05T00:36:26.915Z,20.33
2023-04-05T00:38:55.338Z,28.67
2023-04-05T00:41:23.567Z,22.33
2023-04-05T00:43:50.414Z,25.67
2023-04-05T00:46:17.468Z,18.67
2023-04-05T00:48:44.687Z,17.33
2023-04-05T00:51:11.748Z,26.00
2023-04-05T00:53:41.085Z,22.67
2023-04-05T00:56:09.210Z,17.67
2023-04-05T00:58:36.123Z,16.33
2023-04-05T01:01:10.318Z,17.67
2023-04-05T01:03:41.170Z,18.00
2023-04-05T01:06:27.997Z,18.00
2023-04-05T01:09:14.584Z,22.33
2023-04-05T01:11:45.064Z,21.67
2023-04-05T01:14:11.936Z,23.33
2023-04-05T01:16:39.148Z,19.33
2023-04-05T01:19:06.610Z,19.33
2023-04-05T01:22:10.705Z,18.33
2023-04-05T01:25:11.897Z,14.33
2023-04-05T01:28:10.680Z,15.33
2023-04-05T01:30:44.096Z,22.33
2023-04-05T01:33:22.856Z,29.00
2023-04-05T01:35:59.412Z,32.00
2023-04-05T01:38:28.581Z,30.33
2023-04-05T01:40:56.264Z,30.00
2023-04-05T01:43:23.463Z,37.33
2023-04-05T01:45:51.802Z,27.00
2023-04-05T01:48:18.898Z,27.33
2023-04-05T01:50:45.712Z,22.00
2023-04-05T01:53:13.259Z,21.67
2023-04-05T01:55:40.902Z,22.67
2023-04-05T01:58:08.770Z,15.67
2023-04-05T02:00:35.612Z,17.67
2023-04-05T02:03:04.513Z,17.33
2023-04-05T02:05:33.298Z,18.67
2023-04-05T02:08:00.197Z,29.67
2023-04-05T02:10:27.080Z,22.00
2023-04-05T02:12:54.887Z,20.33
2023-04-05T02:15:21.763Z,15.67
2023-04-05T02:17:48.625Z,20.67
2023-04-05T02:20:16.884Z,18.00
2023-04-05T02:22:44.028Z,19.67
2023-04-05T02:25:11.517Z,15.67
2023-04-05T02:27:38.995Z,23.00
2023-04-05T02:30:07.562Z,17.67
2023-04-05T02:32:35.197Z,22.33
2023-04-05T02:35:02.921Z,22.00
2023-04-05T02:37:31.473Z,22.00
2023-04-05T02:39:58.337Z,29.33
2023-04-05T02:46:33.382Z,23.33
2023-04-05T02:49:01.137Z,21.67
2023-04-05T02:51:30.234Z,18.33
2023-04-05T02:53:59.024Z,17.67
2023-04-05T02:56:25.973Z,24.33
2023-04-05T02:58:53.465Z,22.67
2023-04-05T03:01:24.244Z,22.33
2023-04-05T03:03:51.437Z,19.67
2023-04-05T03:06:39.650Z,23.33
2023-04-05T03:09:09.061Z,23.00
2023-04-05T03:11:36.951Z,20.00
2023-04-05T03:14:04.531Z,25.00
2023-04-05T03:16:41.863Z,20.00
2023-04-05T03:19:20.051Z,20.33
2023-04-05T03:21:47.552Z,26.00
2023-04-05T03:24:26.153Z,26.00
2023-04-05T03:26:55.915Z,22.67
2023-04-05T03:29:24.983Z,21.67
2023-04-05T03:31:53.804Z,22.00
2023-04-05T03:34:23.411Z,18.00
2023-04-05T03:36:50.950Z,26.00
2023-04-05T03:39:34.820Z,24.00
2023-04-05T03:42:02.536Z,20.00
2023-04-05T03:44:29.389Z,20.67
2023-04-05T03:46:56.348Z,22.67
2023-04-05T03:49:23.629Z,22.67
2023-04-05T03:51:50.515Z,27.00
2023-04-05T03:54:18.951Z,23.00
2023-04-05T03:56:47.458Z,24.00
2023-04-05T03:59:18.200Z,28.67
2023-04-05T04:01:45.356Z,40.67
2023-04-05T04:04:12.248Z,31.33
2023-04-05T04:06:41.337Z,23.00
2023-04-05T04:09:08.860Z,25.67
2023-04-05T04:11:36.082Z,29.67
2023-04-05T04:14:07.000Z,28.00
2023-04-05T04:16:46.213Z,16.67
2023-04-05T04:19:38.334Z,40.00
2023-04-05T04:22:23.630Z,34.00
2023-04-05T04:25:12.129Z,30.00
2023-04-05T04:27:58.742Z,26.33
2023-04-05T04:31:02.803Z,29.00
2023-04-05T04:33:52.780Z,30.00
2023-04-05T04:36:37.666Z,31.00
2023-04-05T04:39:37.367Z,28.33
2023-04-05T04:42:34.282Z,24.00
2023-04-05T04:45:15.512Z,34.67
2023-04-05T04:48:04.975Z,28.33
2023-04-05T04:50:50.829Z,36.33
2023-04-05T04:53:18.701Z,45.50
2023-04-05T04:55:45.852Z,42.67
2023-04-05T04:58:13.768Z,44.33
2023-04-05T05:00:43.843Z,31.33
2023-04-05T05:03:13.020Z,41.67
2023-04-05T05:05:44.413Z,38.33
2023-04-05T05:08:12.556Z,32.33
2023-04-05T05:10:41.845Z,33.00
2023-04-05T05:13:09.144Z,35.33
2023-04-05T05:15:36.539Z,29.67
2023-04-05T05:18:03.698Z,30.00
2023-04-05T05:20:33.255Z,20.67
2023-04-05T05:23:00.224Z,22.33
2023-04-05T05:25:27.879Z,25.50
2023-04-05T05:27:55.584Z,18.50
2023-04-05T05:30:25.737Z,13.00
2023-04-05T05:32:52.859Z,11.50
2023-04-05T05:35:19.805Z,8.75
2023-04-05T05:37:48.171Z,12.00
2023-04-05T05:40:15.181Z,12.25
2023-04-05T05:42:42.286Z,7.50
2023-04-05T05:45:10.768Z,12.00
2023-04-05T05:47:37.706Z,9.00
2023-04-05T05:50:07.601Z,10.00
2023-04-05T05:52:34.765Z,12.00
2023-04-05T05:55:03.042Z,16.25
2023-04-05T05:57:30.031Z,10.50
2023-04-05T05:59:56.928Z,12.50
2023-04-05T06:02:24.693Z,13.50
2023-04-05T06:04:51.626Z,17.00
2023-04-05T06:07:18.528Z,9.75
2023-04-05T06:09:45.564Z,9.50
2023-04-05T06:12:13.773Z,10.25
2023-04-05T06:14:41.398Z,12.00
2023-04-05T06:17:08.240Z,13.00
2023-04-05T06:19:35.219Z,11.00
2023-04-05T06:22:02.053Z,11.50
2023-04-05T06:24:29.137Z,14.00
2023-04-05T06:26:56.524Z,19.00
2023-04-05T06:29:24.834Z,13.67
2023-04-05T06:31:51.765Z,15.00
2023-04-05T06:34:18.837Z,21.33
2023-04-05T06:36:46.659Z,16.33
2023-04-05T06:39:13.854Z,12.25
2023-04-05T06:41:40.961Z,20.50
2023-04-05T06:44:07.931Z,18.25
2023-04-05T06:46:36.865Z,13.75
2023-04-05T06:49:04.242Z,16.00
2023-04-05T06:51:31.422Z,16.25
2023-04-05T06:53:58.364Z,18.75
2023-04-05T06:56:25.644Z,16.50
2023-04-05T06:58:52.620Z,14.25
2023-04-05T07:01:19.548Z,14.50
2023-04-05T07:03:47.861Z,17.25
2023-04-05T07:06:14.750Z,17.00
2023-04-05T07:08:41.737Z,18.50
2023-04-05T07:11:08.846Z,11.50
2023-04-05T07:13:35.711Z,15.75
2023-04-05T07:16:03.853Z,18.25
2023-04-05T07:18:30.981Z,14.50
2023-04-05T07:21:00.712Z,15.50
2023-04-05T07:23:28.421Z,13.25
2023-04-05T07:25:59.184Z,12.25
2023-04-05T07:28:26.372Z,13.25
2023-04-05T07:30:53.284Z,12.60
2023-04-05T07:33:21.548Z,12.60
2023-04-05T07:35:52.641Z,13.40
2023-04-05T07:38:21.403Z,10.80
2023-04-05T07:40:48.883Z,12.20
2023-04-05T07:43:15.872Z,11.80
2023-04-05T07:45:43.084Z,14.60
2023-04-05T07:48:10.224Z,10.80
2023-04-05T07:50:41.477Z,15.40
2023-04-05T07:53:08.608Z,12.60
2023-04-05T07:55:39.056Z,12.80
2023-04-05T07:58:05.970Z,11.00
2023-04-05T08:00:33.086Z,6.80
2023-04-05T08:03:02.112Z,13.40
2023-04-05T08:06:22.839Z,11.00
2023-04-05T08:08:50.576Z,11.80
2023-04-05T08:11:19.213Z,10.20
2023-04-05T08:13:46.526Z,9.60
2023-04-05T08:16:13.437Z,12.00
2023-04-05T08:18:40.424Z,9.80
2023-04-05T08:21:07.396Z,12.00
2023-04-05T08:23:34.285Z,12.80
2023-04-05T08:26:01.728Z,13.00
2023-04-05T08:28:30.205Z,14.60
2023-04-05T08:30:57.165Z,10.60
2023-04-05T08:33:24.313Z,8.40
2023-04-05T08:35:51.312Z,12.00
2023-04-05T08:38:18.388Z,12.60
2023-04-05T08:40:47.523Z,11.20
2023-04-05T08:43:25.648Z,13.60
2023-04-05T08:45:57.531Z,14.40
2023-04-05T08:48:24.947Z,14.00
2023-04-05T08:51:45.112Z,13.00
2023-04-05T08:54:12.097Z,13.00
2023-04-05T08:56:40.409Z,13.50
2023-04-05T08:59:11.039Z,12.75
2023-04-05T09:01:45.085Z,14.25
2023-04-05T09:04:16.997Z,16.00
2023-04-05T09:07:21.946Z,9.50
2023-04-05T09:09:54.600Z,12.50
2023-04-05T09:12:24.748Z,12.00
2023-04-05T09:14:53.599Z,13.00
2023-04-05T09:17:23.320Z,2.33
2023-04-05T09:19:50.930Z,15.33
2023-04-05T09:22:17.910Z,8.00
2023-04-05T09:24:47.289Z,12.00
2023-04-05T09:27:20.525Z,14.25
2023-04-05T09:29:54.233Z,13.00
2023-04-05T09:32:26.795Z,13.00
2023-04-05T09:34:55.364Z,13.00
2023-04-05T09:37:28.757Z,11.33
2023-04-05T09:40:04.980Z,13.00
2023-04-05T09:42:44.680Z,12.33
2023-04-05T09:45:12.651Z,16.00
2023-04-05T09:48:01.334Z,9.00
2023-04-05T09:50:28.494Z,8.00
2023-04-05T09:53:10.376Z,10.00
2023-04-05T09:55:37.754Z,13.75
2023-04-05T09:58:04.971Z,2.50
2023-04-05T10:00:32.774Z,8.25
2023-04-05T10:03:01.105Z,5.25
2023-04-05T10:05:29.576Z,8.00
2023-04-05T10:07:56.845Z,11.25
2023-04-05T10:10:25.833Z,10.00
2023-04-05T10:12:54.058Z,10.50
2023-04-05T10:15:23.211Z,7.50
2023-04-05T10:17:55.755Z,11.25
2023-04-05T10:20:27.321Z,10.25
2023-04-05T10:23:08.088Z,12.00
2023-04-05T10:25:57.400Z,15.00
2023-04-05T10:28:31.844Z,7.67
2023-04-05T10:31:10.935Z,12.00
2023-04-05T10:33:47.614Z,10.33
2023-04-05T10:36:35.459Z,12.25
2023-04-05T10:39:11.059Z,10.75
2023-04-05T10:42:11.255Z,10.75
2023-04-05T10:44:43.429Z,9.00
2023-04-05T10:47:17.033Z,13.00
2023-04-05T10:49:51.487Z,16.00
2023-04-05T10:52:22.483Z,14.67
2023-04-05T10:56:06.182Z,10.33
2023-04-05T10:58:35.455Z,16.00
2023-04-05T11:01:04.952Z,10.00
2023-04-05T11:03:49.322Z,9.50
2023-04-05T11:06:31.776Z,12.25
2023-04-05T11:09:11.124Z,9.75
2023-04-05T11:11:41.721Z,11.75
2023-04-05T11:14:23.954Z,8.75
2023-04-05T11:16:54.773Z,11.00
2023-04-05T11:19:51.111Z,11.75
2023-04-05T11:22:26.510Z,12.60
2023-04-05T11:24:58.308Z,11.60
2023-04-05T11:27:30.469Z,9.80
2023-04-05T11:29:59.664Z,10.60
2023-04-05T11:32:39.887Z,15.20
2023-04-05T11:35:13.158Z,11.20
2023-04-05T11:38:08.637Z,10.80
2023-04-05T11:40:40.102Z,12.80
2023-04-05T11:43:12.117Z,10.60
2023-04-05T11:45:41.837Z,12.75
2023-04-05T11:48:11.261Z,10.00
2023-04-05T11:50:41.497Z,15.75
2023-04-05T11:53:13.521Z,11.25
2023-04-05T11:55:44.616Z,13.00
2023-04-05T11:58:13.867Z,12.00
2023-04-05T12:00:46.927Z,10.50
2023-04-05T12:04:02.991Z,15.00
2023-04-05T12:06:30.400Z,11.25
2023-04-05T12:08:58.053Z,17.00
2023-04-05T12:11:28.346Z,15.75
2023-04-05T12:13:58.320Z,16.25
2023-04-05T12:16:26.218Z,10.00
2023-04-05T12:18:57.104Z,14.25
2023-04-05T12:21:25.413Z,10.75
2023-04-05T12:23:54.091Z,12.75
2023-04-05T12:26:21.717Z,12.00
2023-04-05T12:28:55.721Z,13.50
2023-04-05T12:31:37.139Z,12.33
2023-04-05T12:34:04.427Z,14.67
2023-04-05T12:36:31.929Z,13.00
2023-04-05T12:38:59.759Z,11.00
2023-04-05T12:41:30.746Z,10.67
2023-04-05T12:43:59.729Z,17.00
2023-04-05T12:46:39.984Z,16.00
2023-04-05T12:49:10.121Z,10.33
2023-04-05T12:51:41.116Z,13.00
2023-04-05T12:54:08.218Z,12.50
2023-04-05T12:56:35.096Z,15.50
2023-04-05T12:59:06.378Z,10.50
2023-04-05T13:01:34.462Z,15.00
2023-04-05T13:04:15.552Z,16.00
2023-04-05T13:06:45.088Z,10.25
2023-04-05T13:09:11.923Z,12.75
2023-04-05T13:11:38.816Z,12.75
2023-04-05T13:14:07.498Z,13.50
2023-04-05T13:16:34.609Z,14.75
2023-04-05T13:19:01.649Z,14.00
2023-04-05T13:21:28.647Z,12.25
2023-04-05T13:23:55.623Z,14.75
2023-04-05T13:26:22.452Z,16.50
2023-04-05T13:28:49.533Z,17.50
2023-04-05T13:31:37.482Z,11.25
2023-04-05T13:34:05.602Z,8.00
2023-04-05T13:36:35.781Z,16.75
2023-04-05T13:39:03.064Z,24.00
2023-04-05T13:41:30.062Z,15.00
2023-04-05T13:43:56.957Z,11.67
2023-04-05T13:46:23.972Z,10.67
2023-04-05T13:48:52.568Z,9.25
2023-04-05T13:51:19.799Z,14.00
2023-04-05T13:53:47.296Z,15.75
2023-04-05T13:56:14.403Z,12.50
2023-04-05T13:58:41.598Z,13.25
2023-04-05T14:01:09.090Z,8.25
2023-04-05T14:03:36.365Z,15.00
2023-04-05T14:06:04.988Z,12.75
2023-04-05T14:08:32.112Z,12.25
2023-04-05T14:10:59.562Z,16.00
2023-04-05T14:13:26.440Z,17.00
2023-04-05T14:15:54.057Z,13.25
2023-04-05T14:18:21.387Z,9.75
2023-04-05T14:20:48.399Z,6.50
2023-04-05T14:23:16.788Z,10.00
2023-04-05T14:25:43.854Z,15.00
2023-04-05T14:28:10.971Z,22.00
2023-04-05T14:30:38.062Z,9.75
2023-04-05T14:33:05.866Z,11.50
2023-04-05T14:35:33.983Z,12.50
2023-04-05T14:38:01.040Z,15.25
2023-04-05T14:40:29.640Z,13.50
2023-04-05T14:42:56.774Z,9.75
2023-04-05T14:45:23.837Z,10.00
2023-04-05T14:47:54.622Z,3.50
2023-04-05T14:50:26.401Z,14.25
2023-04-05T14:52:55.972Z,10.00
2023-04-05T14:55:31.911Z,11.00
2023-04-05T14:58:12.513Z,9.25
2023-04-05T15:00:48.294Z,17.50
2023-04-05T15:03:21.184Z,9.75
2023-04-05T15:05:50.630Z,12.75
2023-04-05T15:08:24.045Z,12.25
2023-04-05T15:10:55.634Z,12.50
2023-04-05T15:13:29.585Z,13.50
2023-04-05T15:15:59.910Z,19.00
2023-04-05T15:18:28.501Z,15.50
2023-04-05T15:21:00.427Z,17.00
2023-04-05T15:23:32.064Z,13.00
2023-04-05T15:26:03.354Z,10.00
2023-04-05T15:28:35.526Z,11.50
2023-04-05T15:31:03.616Z,12.25
2023-04-05T15:33:31.889Z,9.00
2023-04-05T15:35:59.274Z,15.00
2023-04-05T15:38:26.540Z,14.25
2023-04-05T15:40:54.073Z,13.00
2023-04-05T15:43:21.370Z,11.00
2023-04-05T15:45:49.839Z,14.25
2023-04-05T15:48:16.878Z,14.00
2023-04-05T15:50:44.187Z,13.50
2023-04-05T15:53:11.425Z,17.00
2023-04-05T15:55:39.079Z,11.75
2023-04-05T15:58:06.089Z,11.50
2023-04-05T16:00:33.385Z,12.50
2023-04-05T16:03:02.589Z,7.50
2023-04-05T16:05:29.856Z,11.50
2023-04-05T16:07:56.923Z,14.50
2023-04-05T16:10:25.093Z,12.25
2023-04-05T16:12:53.304Z,11.50
2023-04-05T16:15:20.487Z,15.00
2023-04-05T16:17:48.859Z,12.50
2023-04-05T16:20:17.699Z,12.00
2023-04-05T16:22:47.844Z,9.75
2023-04-05T16:25:14.930Z,7.50
2023-04-05T16:27:44.089Z,13.00
2023-04-05T16:30:11.898Z,9.00
2023-04-05T16:32:40.656Z,19.50
2023-04-05T16:35:10.324Z,10.50
2023-04-05T16:37:38.987Z,9.75
2023-04-05T16:40:08.610Z,9.00
2023-04-05T16:42:37.545Z,17.00
2023-04-05T16:45:10.571Z,9.00
2023-04-05T16:47:38.627Z,11.00
2023-04-05T16:50:07.157Z,11.50
2023-04-05T16:52:36.982Z,13.00
2023-04-05T16:55:10.856Z,9.00
2023-04-05T16:57:37.945Z,6.75
2023-04-05T17:00:08.288Z,6.75
2023-04-05T17:02:37.704Z,12.75
2023-04-05T17:05:06.302Z,9.50
2023-04-05T17:07:38.964Z,8.50
2023-04-05T17:10:15.798Z,7.00
2023-04-05T17:12:47.238Z,9.75
2023-04-05T17:15:14.294Z,7.00
2023-04-05T17:17:43.349Z,9.00
2023-04-05T17:20:15.199Z,6.50
2023-04-05T17:22:48.567Z,9.00
2023-04-05T17:25:23.260Z,14.25
2023-04-05T17:27:53.187Z,7.00
2023-04-05T17:30:32.155Z,11.75
2023-04-05T17:33:00.648Z,8.00
2023-04-05T17:35:28.086Z,0.00
2023-04-05T17:37:57.608Z,6.50
2023-04-05T17:40:26.276Z,5.75
2023-04-05T17:42:57.593Z,8.00
2023-04-05T17:45:25.130Z,9.00
2023-04-05T17:47:52.257Z,10.00
2023-04-05T17:50:19.873Z,7.00
2023-04-05T17:52:47.040Z,9.75
2023-04-05T17:55:14.529Z,6.00
2023-04-05T17:57:42.895Z,7.50
2023-04-05T18:00:11.884Z,72.50
2023-04-05T18:02:38.954Z,42.50
2023-04-05T18:05:09.918Z,13.00
2023-04-05T18:07:37.883Z,3.00
2023-04-05T18:10:12.444Z,6.75
2023-04-05T18:12:39.463Z,13.00
2023-04-05T18:15:08.751Z,10.00
2023-04-05T18:17:36.595Z,12.75
2023-04-05T18:20:06.298Z,11.25
2023-04-05T18:22:37.283Z,11.00
2023-04-05T18:25:05.613Z,10.00
2023-04-05T18:27:32.924Z,19.00
2023-04-05T18:30:00.002Z,23.75
2023-04-05T18:32:28.734Z,17.75
2023-04-05T18:34:56.138Z,13.50
2023-04-05T18:37:25.547Z,10.00
2023-04-05T18:39:52.837Z,7.25
2023-04-05T18:42:20.096Z,10.75
2023-04-05T18:44:47.119Z,9.75
2023-04-05T18:47:14.228Z,10.25
2023-04-05T18:49:42.524Z,9.00
2023-04-05T18:52:09.566Z,12.00
2023-04-05T18:54:39.660Z,9.75
2023-04-05T18:57:07.182Z,11.00
2023-04-05T18:59:34.286Z,11.75
2023-04-05T19:02:01.657Z,12.25
2023-04-05T19:04:29.304Z,14.00
2023-04-05T19:06:58.052Z,9.25
2023-04-05T19:09:25.587Z,12.00
2023-04-05T19:11:53.563Z,11.50
2023-04-05T19:14:21.105Z,11.75
2023-04-05T19:16:48.159Z,11.25
2023-04-05T19:19:15.650Z,11.75
2023-04-05T19:21:44.045Z,10.25
2023-04-05T19:24:14.434Z,13.25
2023-04-05T19:26:43.079Z,11.25
2023-04-05T19:29:12.039Z,12.25
2023-04-05T19:31:41.027Z,15.00
2023-04-05T19:34:09.306Z,12.75
2023-04-05T19:36:38.033Z,12.25
2023-04-05T19:39:10.401Z,17.50
2023-04-05T19:41:38.904Z,18.75
2023-04-05T19:44:10.976Z,10.75
2023-04-05T19:46:40.916Z,15.00
2023-04-05T19:49:13.863Z,14.75
2023-04-05T19:51:42.193Z,12.25
2023-04-05T19:54:22.499Z,13.25
2023-04-05T19:56:51.926Z,14.00
2023-04-05T19:59:32.588Z,12.75
2023-04-05T20:02:01.952Z,11.00
2023-04-05T20:04:29.053Z,13.75
2023-04-05T20:06:56.118Z,14.50
2023-04-05T20:09:26.636Z,14.25
2023-04-05T20:11:59.321Z,14.25
2023-04-05T20:14:33.424Z,16.50
2023-04-05T20:17:00.562Z,15.50
2023-04-05T20:19:30.058Z,2.00
2023-04-05T20:22:01.078Z,20.50
2023-04-05T20:24:29.986Z,23.25
2023-04-05T20:27:02.097Z,25.25
2023-04-05T20:29:33.551Z,29.50
2023-04-05T20:32:03.309Z,49.00
2023-04-05T20:34:33.532Z,40.50
2023-04-05T20:37:02.422Z,39.00
2023-04-05T20:40:54.582Z,27.75
2023-04-05T20:43:25.041Z,27.75
2023-04-05T20:45:52.387Z,22.25
2023-04-05T20:48:19.496Z,30.00
2023-04-05T20:50:46.675Z,25.75
2023-04-05T20:53:14.061Z,43.00
2023-04-05T20:55:41.316Z,42.67
2023-04-05T20:58:08.321Z,31.75
2023-04-05T21:00:36.746Z,34.25
2023-04-05T21:03:04.011Z,28.25
2023-04-05T21:05:31.095Z,30.50
2023-04-05T21:07:58.398Z,36.25
2023-04-05T21:10:25.285Z,18.25
2023-04-05T21:12:54.092Z,21.50
2023-04-05T21:15:21.558Z,22.25
2023-04-05T21:17:50.039Z,22.50
2023-04-05T21:20:17.029Z,22.75
2023-04-05T21:22:45.094Z,58.33
2023-04-05T21:25:14.697Z,30.67
2023-04-05T21:27:41.738Z,29.25
2023-04-05T21:30:09.983Z,29.50
2023-04-05T21:32:38.036Z,26.75
2023-04-05T21:35:07.898Z,31.25
2023-04-05T21:37:35.257Z,25.00
2023-04-05T21:40:02.431Z,33.25
2023-04-05T21:42:30.012Z,25.00
2023-04-05T21:44:57.589Z,26.75
2023-04-05T21:47:24.766Z,26.75
2023-04-05T21:49:51.847Z,26.25
2023-04-05T21:52:20.310Z,26.50
2023-04-05T21:54:47.725Z,27.75
2023-04-05T21:57:14.724Z,22.25
2023-04-05T21:59:42.046Z,30.00
2023-04-05T22:02:09.381Z,28.75
2023-04-05T22:04:36.437Z,26.75
2023-04-05T22:07:04.231Z,28.50
2023-04-05T22:09:33.048Z,21.25
2023-04-05T22:12:01.445Z,22.25
2023-04-05T22:14:28.754Z,28.75
2023-04-05T22:16:55.993Z,24.67
2023-04-05T22:19:23.659Z,25.00
2023-04-05T22:21:50.828Z,24.75
2023-04-05T22:24:17.858Z,28.75
2023-04-05T22:26:46.174Z,23.25
2023-04-05T22:29:13.277Z,21.50
2023-04-05T22:31:40.314Z,25.25
2023-04-05T22:34:07.302Z,26.75
2023-04-05T22:36:34.648Z,25.75
2023-04-05T22:39:01.757Z,24.75
2023-04-05T22:41:28.789Z,26.25
2023-04-05T22:43:57.142Z,25.50
2023-04-05T22:46:24.181Z,20.25
2023-04-05T22:48:51.561Z,23.25
2023-04-05T22:51:18.569Z,25.00
2023-04-05T22:53:45.531Z,27.67
2023-04-05T22:56:14.086Z,26.25
2023-04-05T22:58:41.302Z,29.33
2023-04-05T23:01:09.761Z,24.33
2023-04-05T23:03:36.720Z,20.00
2023-04-05T23:06:04.776Z,24.00
2023-04-05T23:08:32.043Z,29.00
2023-04-05T23:10:58.995Z,28.33
2023-04-05T23:13:26.073Z,23.67
2023-04-05T23:15:53.230Z,24.33
2023-04-05T23:18:21.647Z,22.00
2023-04-05T23:20:49.615Z,25.67
2023-04-05T23:23:16.674Z,25.33
2023-04-05T23:25:43.740Z,25.33
2023-04-05T23:28:10.788Z,30.00
2023-04-05T23:30:38.103Z,27.67
2023-04-05T23:33:05.264Z,30.67
2023-04-05T23:35:33.755Z,33.33
2023-04-05T23:38:01.770Z,24.33
2023-04-05T23:41:35.836Z,26.67
2023-04-05T23:44:02.915Z,23.33
2023-04-05T23:46:29.899Z,24.67
2023-04-05T23:48:56.983Z,28.33
2023-04-05T23:51:25.409Z,27.67
2023-04-05T23:53:52.430Z,24.67
2023-04-05T23:56:19.467Z,26.67
2023-04-05T23:58:46.597Z,24.00
